sensor_id;sensor_type;location;lat;lon;timestamp;pressure;altitude;pressure_sealevel;temperature;humidity
11448;BME280;43755;49.736;8.734;2022-12-07T00:00:10;97954.50;;;1.97;100.00
11448;BME280;43755;49.736;8.734;2022-12-07T00:02:12;97952.78;;;1.94;100.00
11448;BME280;43755;49.736;8.734;2022-12-07T00:04:15;97957.16;;;1.89;100.00
11448;BME280;43755;49.736;8.734;2022-12-07T00:06:18;97958.94;;;1.86;100.00
11448;BME280;43755;49.736;8.734;2022-12-07T00:08:19;97961.56;;;1.84;100.00
11448;BME280;43755;49.736;8.734;2022-12-07T00:10:21;97957.22;;;1.83;100.00
11448;BME280;43755;49.736;8.734;2022-12-07T00:12:23;97954.66;;;1.82;100.00
11448;BME280;43755;49.736;8.734;2022-12-07T00:14:25;97959.88;;;1.82;100.00
11448;BME280;43755;49.736;8.734;2022-12-07T00:16:28;97953.72;;;1.84;100.00
11448;BME280;43755;49.736;8.734;2022-12-07T00:18:29;97952.00;;;1.86;100.00
11448;BME280;43755;49.736;8.734;2022-12-07T00:20:31;97948.47;;;1.90;100.00
11448;BME280;43755;49.736;8.734;2022-12-07T00:22:33;97944.13;;;1.89;100.00
11448;BME280;43755;49.736;8.734;2022-12-07T00:24:34;97938.03;;;1.92;100.00
11448;BME280;43755;49.736;8.734;2022-12-07T00:26:37;97941.50;;;1.92;100.00
11448;BME280;43755;49.736;8.734;2022-12-07T00:28:41;97936.28;;;1.94;100.00
11448;BME280;43755;49.736;8.734;2022-12-07T00:30:42;97939.81;;;1.88;100.00
11448;BME280;43755;49.736;8.734;2022-12-07T00:32:44;97936.28;;;1.91;100.00
11448;BME280;43755;49.736;8.734;2022-12-07T00:34:45;97941.56;;;1.86;100.00
11448;BME280;43755;49.736;8.734;2022-12-07T00:36:47;97941.50;;;1.89;100.00
11448;BME280;43755;49.736;8.734;2022-12-07T00:38:48;97928.44;;;1.92;100.00
11448;BME280;43755;49.736;8.734;2022-12-07T00:40:54;97932.78;;;1.93;100.00
11448;BME280;43755;49.736;8.734;2022-12-07T00:42:56;97931.94;;;1.90;100.00
11448;BME280;43755;49.736;8.734;2022-12-07T00:44:59;97930.25;;;1.87;100.00
11448;BME280;43755;49.736;8.734;2022-12-07T00:47:00;97926.78;;;1.87;100.00
11448;BME280;43755;49.736;8.734;2022-12-07T00:49:02;97935.47;;;1.84;100.00
11448;BME280;43755;49.736;8.734;2022-12-07T00:51:04;97933.72;;;1.88;100.00
11448;BME280;43755;49.736;8.734;2022-12-07T00:53:06;97933.72;;;1.85;100.00
11448;BME280;43755;49.736;8.734;2022-12-07T00:55:08;97932.84;;;1.86;100.00
11448;BME280;43755;49.736;8.734;2022-12-07T00:57:09;97923.31;;;1.85;100.00
11448;BME280;43755;49.736;8.734;2022-12-07T00:59:13;97919.00;;;1.82;100.00
11448;BME280;43755;49.736;8.734;2022-12-07T01:01:16;97925.03;;;1.86;100.00
11448;BME280;43755;49.736;8.734;2022-12-07T01:03:17;97925.03;;;1.87;100.00
11448;BME280;43755;49.736;8.734;2022-12-07T01:05:19;97918.91;;;1.90;100.00
11448;BME280;43755;49.736;8.734;2022-12-07T01:07:20;97908.47;;;1.91;100.00
11448;BME280;43755;49.736;8.734;2022-12-07T01:09:22;97913.66;;;1.91;100.00
11448;BME280;43755;49.736;8.734;2022-12-07T01:11:25;97916.38;;;1.82;100.00
11448;BME280;43755;49.736;8.734;2022-12-07T01:13:27;97912.91;;;1.79;100.00
11448;BME280;43755;49.736;8.734;2022-12-07T01:15:29;97912.00;;;1.87;100.00
11448;BME280;43755;49.736;8.734;2022-12-07T01:17:31;97905.91;;;1.88;100.00
11448;BME280;43755;49.736;8.734;2022-12-07T01:19:33;97899.75;;;1.92;100.00
11448;BME280;43755;49.736;8.734;2022-12-07T01:21:35;97901.50;;;1.90;100.00
11448;BME280;43755;49.736;8.734;2022-12-07T01:23:38;97908.53;;;1.84;100.00
11448;BME280;43755;49.736;8.734;2022-12-07T01:25:39;97904.22;;;1.81;100.00
11448;BME280;43755;49.736;8.734;2022-12-07T01:27:40;97898.94;;;1.87;100.00
11448;BME280;43755;49.736;8.734;2022-12-07T01:29:42;97904.19;;;1.84;100.00
11448;BME280;43755;49.736;8.734;2022-12-07T01:31:43;97902.47;;;1.80;100.00
11448;BME280;43755;49.736;8.734;2022-12-07T01:33:48;97905.16;;;1.76;100.00
11448;BME280;43755;49.736;8.734;2022-12-07T01:35:50;97904.28;;;1.72;100.00
11448;BME280;43755;49.736;8.734;2022-12-07T01:37:51;97898.16;;;1.79;100.00
11448;BME280;43755;49.736;8.734;2022-12-07T01:39:53;97901.66;;;1.75;100.00
11448;BME280;43755;49.736;8.734;2022-12-07T01:41:54;97903.41;;;1.73;100.00
11448;BME280;43755;49.736;8.734;2022-12-07T01:44:17;97908.69;;;1.69;100.00
11448;BME280;43755;49.736;8.734;2022-12-07T01:46:19;97910.47;;;1.62;100.00
11448;BME280;43755;49.736;8.734;2022-12-07T01:48:23;97910.53;;;1.59;100.00
11448;BME280;43755;49.736;8.734;2022-12-07T01:50:27;97905.19;;;1.70;100.00
11448;BME280;43755;49.736;8.734;2022-12-07T01:52:33;97909.53;;;1.69;100.00
11448;BME280;43755;49.736;8.734;2022-12-07T01:54:36;97911.28;;;1.70;100.00
11448;BME280;43755;49.736;8.734;2022-12-07T01:56:40;97906.94;;;1.66;100.00
11448;BME280;43755;49.736;8.734;2022-12-07T01:58:44;97908.63;;;1.73;100.00
11448;BME280;43755;49.736;8.734;2022-12-07T02:00:46;97913.03;;;1.68;100.00
11448;BME280;43755;49.736;8.734;2022-12-07T02:02:51;97907.75;;;1.74;100.00
11448;BME280;43755;49.736;8.734;2022-12-07T02:04:55;97894.72;;;1.76;100.00
11448;BME280;43755;49.736;8.734;2022-12-07T02:06:59;97895.53;;;1.78;100.00
11448;BME280;43755;49.736;8.734;2022-12-07T02:09:01;97896.50;;;1.69;100.00
11448;BME280;43755;49.736;8.734;2022-12-07T02:11:03;97893.03;;;1.70;100.00
11448;BME280;43755;49.736;8.734;2022-12-07T02:13:09;97894.84;;;1.62;100.00
11448;BME280;43755;49.736;8.734;2022-12-07T02:15:11;97897.50;;;1.56;100.00
11448;BME280;43755;49.736;8.734;2022-12-07T02:17:19;97905.31;;;1.56;100.00
11448;BME280;43755;49.736;8.734;2022-12-07T02:22:13;97905.34;;;1.53;100.00
11448;BME280;43755;49.736;8.734;2022-12-07T02:24:44;97906.19;;;1.53;100.00
11448;BME280;43755;49.736;8.734;2022-12-07T02:29:26;97917.53;;;1.52;100.00
11448;BME280;43755;49.736;8.734;2022-12-07T02:31:30;97914.06;;;1.49;100.00
11448;BME280;43755;49.736;8.734;2022-12-07T02:33:36;97913.19;;;1.51;100.00
11448;BME280;43755;49.736;8.734;2022-12-07T02:35:41;97897.53;;;1.53;100.00
11448;BME280;43755;49.736;8.734;2022-12-07T02:37:51;97907.94;;;1.54;100.00
11448;BME280;43755;49.736;8.734;2022-12-07T02:39:58;97901.84;;;1.57;100.00
11448;BME280;43755;49.736;8.734;2022-12-07T02:42:03;97896.56;;;1.63;100.00
11448;BME280;43755;49.736;8.734;2022-12-07T02:44:11;97893.09;;;1.61;100.00
11448;BME280;43755;49.736;8.734;2022-12-07T02:46:20;97883.47;;;1.66;100.00
11448;BME280;43755;49.736;8.734;2022-12-07T02:48:24;97885.22;;;1.69;100.00
11448;BME280;43755;49.736;8.734;2022-12-07T02:50:27;97879.09;;;1.71;100.00
11448;BME280;43755;49.736;8.734;2022-12-07T02:52:28;97877.44;;;1.61;100.00
11448;BME280;43755;49.736;8.734;2022-12-07T02:54:30;97870.44;;;1.68;100.00
11448;BME280;43755;49.736;8.734;2022-12-07T02:56:39;97867.88;;;1.64;100.00
11448;BME280;43755;49.736;8.734;2022-12-07T02:58:51;97873.03;;;1.69;100.00
11448;BME280;43755;49.736;8.734;2022-12-07T03:01:01;97860.00;;;1.69;100.00
11448;BME280;43755;49.736;8.734;2022-12-07T03:03:10;97863.41;;;1.74;100.00
11448;BME280;43755;49.736;8.734;2022-12-07T03:05:22;97863.50;;;1.67;100.00
11448;BME280;43755;49.736;8.734;2022-12-07T03:07:32;97866.09;;;1.68;100.00
11448;BME280;43755;49.736;8.734;2022-12-07T03:09:43;97866.97;;;1.69;100.00
11448;BME280;43755;49.736;8.734;2022-12-07T03:11:48;97869.63;;;1.59;100.00
11448;BME280;43755;49.736;8.734;2022-12-07T03:13:56;97865.31;;;1.58;100.00
11448;BME280;43755;49.736;8.734;2022-12-07T03:16:04;97856.59;;;1.64;100.00
11448;BME280;43755;49.736;8.734;2022-12-07T03:18:10;97853.97;;;1.62;100.00
11448;BME280;43755;49.736;8.734;2022-12-07T03:20:17;97844.41;;;1.64;100.00
11448;BME280;43755;49.736;8.734;2022-12-07T03:22:21;97856.59;;;1.64;100.00
11448;BME280;43755;49.736;8.734;2022-12-07T03:24:27;97850.47;;;1.65;100.00
11448;BME280;43755;49.736;8.734;2022-12-07T03:26:32;97853.03;;;1.70;100.00
11448;BME280;43755;49.736;8.734;2022-12-07T03:28:37;97864.34;;;1.67;100.00
11448;BME280;43755;49.736;8.734;2022-12-07T03:30:46;97862.63;;;1.66;100.00
11448;BME280;43755;49.736;8.734;2022-12-07T03:32:50;97867.00;;;1.62;100.00
11448;BME280;43755;49.736;8.734;2022-12-07T03:35:00;97858.31;;;1.62;100.00
11448;BME280;43755;49.736;8.734;2022-12-07T03:37:08;97865.31;;;1.58;100.00
11448;BME280;43755;49.736;8.734;2022-12-07T03:39:17;97864.53;;;1.49;100.00
11448;BME280;43755;49.736;8.734;2022-12-07T03:41:24;97869.84;;;1.37;100.00
11448;BME280;43755;49.736;8.734;2022-12-07T03:43:27;97867.25;;;1.37;100.00
11448;BME280;43755;49.736;8.734;2022-12-07T03:45:35;97866.47;;;1.29;100.00
11448;BME280;43755;49.736;8.734;2022-12-07T03:47:45;97866.47;;;1.27;100.00
11448;BME280;43755;49.736;8.734;2022-12-07T03:49:50;97860.47;;;1.17;100.00
11448;BME280;43755;49.736;8.734;2022-12-07T03:52:00;97863.03;;;1.22;100.00
11448;BME280;43755;49.736;8.734;2022-12-07T03:54:10;97856.09;;;1.18;100.00
11448;BME280;43755;49.736;8.734;2022-12-07T03:56:12;97852.63;;;1.22;100.00
11448;BME280;43755;49.736;8.734;2022-12-07T03:58:17;97850.03;;;1.19;100.00
11448;BME280;43755;49.736;8.734;2022-12-07T04:00:20;97853.44;;;1.24;100.00
11448;BME280;43755;49.736;8.734;2022-12-07T04:02:22;97853.47;;;1.21;100.00
11448;BME280;43755;49.736;8.734;2022-12-07T04:04:24;97860.38;;;1.30;100.00
11448;BME280;43755;49.736;8.734;2022-12-07T04:06:26;97861.19;;;1.35;100.00
11448;BME280;43755;49.736;8.734;2022-12-07T04:08:28;97871.47;;;1.48;100.00
11448;BME280;43755;49.736;8.734;2022-12-07T04:10:30;97865.44;;;1.46;100.00
11448;BME280;43755;49.736;8.734;2022-12-07T04:12:31;97864.53;;;1.50;100.00
11448;BME280;43755;49.736;8.734;2022-12-07T04:14:33;97864.59;;;1.43;100.00
11448;BME280;43755;49.736;8.734;2022-12-07T04:16:34;97865.50;;;1.39;100.00
11448;BME280;43755;49.736;8.734;2022-12-07T04:18:36;97863.81;;;1.35;100.00
11448;BME280;43755;49.736;8.734;2022-12-07T04:20:37;97864.69;;;1.31;100.00
11448;BME280;43755;49.736;8.734;2022-12-07T04:22:38;97863.84;;;1.29;100.00
11448;BME280;43755;49.736;8.734;2022-12-07T04:24:41;97859.47;;;1.31;100.00
11448;BME280;43755;49.736;8.734;2022-12-07T04:26:43;97859.56;;;1.18;100.00
11448;BME280;43755;49.736;8.734;2022-12-07T04:28:45;97857.91;;;1.11;100.00
11448;BME280;43755;49.736;8.734;2022-12-07T04:30:46;97857.91;;;1.10;100.00
11448;BME280;43755;49.736;8.734;2022-12-07T04:32:48;97857.91;;;1.11;100.00
11448;BME280;43755;49.736;8.734;2022-12-07T04:34:49;97851.81;;;1.12;100.00
11448;BME280;43755;49.736;8.734;2022-12-07T04:36:51;97861.34;;;1.16;100.00
11448;BME280;43755;49.736;8.734;2022-12-07T04:38:53;97857.84;;;1.20;100.00
11448;BME280;43755;49.736;8.734;2022-12-07T04:40:56;97860.38;;;1.25;100.00
11448;BME280;43755;49.736;8.734;2022-12-07T04:42:57;97855.28;;;1.17;100.00
11448;BME280;43755;49.736;8.734;2022-12-07T04:44:59;97853.50;;;1.19;100.00
11448;BME280;43755;49.736;8.734;2022-12-07T04:47:00;97855.28;;;1.16;100.00
11448;BME280;43755;49.736;8.734;2022-12-07T04:49:02;97859.63;;;1.14;100.00
11448;BME280;43755;49.736;8.734;2022-12-07T04:51:04;97855.28;;;1.17;100.00
11448;BME280;43755;49.736;8.734;2022-12-07T04:53:05;97849.25;;;1.11;100.00
11448;BME280;43755;49.736;8.734;2022-12-07T04:55:07;97848.31;;;1.13;100.00
11448;BME280;43755;49.736;8.734;2022-12-07T04:57:10;97850.09;;;1.11;100.00
11448;BME280;43755;49.736;8.734;2022-12-07T04:59:12;97847.50;;;1.11;100.00
11448;BME280;43755;49.736;8.734;2022-12-07T05:01:15;97845.81;;;1.06;100.00
11448;BME280;43755;49.736;8.734;2022-12-07T05:03:16;97847.50;;;1.11;100.00
11448;BME280;43755;49.736;8.734;2022-12-07T05:05:18;97846.63;;;1.06;100.00
11448;BME280;43755;49.736;8.734;2022-12-07T05:07:19;97844.03;;;1.09;100.00
11448;BME280;43755;49.736;8.734;2022-12-07T05:09:20;97844.03;;;1.09;100.00
11448;BME280;43755;49.736;8.734;2022-12-07T05:11:22;97837.03;;;1.14;100.00
11448;BME280;43755;49.736;8.734;2022-12-07T05:13:40;97842.19;;;1.20;100.00
11448;BME280;43755;49.736;8.734;2022-12-07T05:15:41;97845.72;;;1.13;100.00
11448;BME280;43755;49.736;8.734;2022-12-07T05:17:44;97846.59;;;1.15;100.00
11448;BME280;43755;49.736;8.734;2022-12-07T05:19:45;97852.63;;;1.19;100.00
11448;BME280;43755;49.736;8.734;2022-12-07T05:21:47;97849.13;;;1.23;100.00
11448;BME280;43755;49.736;8.734;2022-12-07T05:23:48;97850.84;;;1.26;100.00
11448;BME280;43755;49.736;8.734;2022-12-07T05:25:50;97851.69;;;1.28;100.00
11448;BME280;43755;49.736;8.734;2022-12-07T05:27:51;97854.31;;;1.28;100.00
11448;BME280;43755;49.736;8.734;2022-12-07T05:29:54;97850.81;;;1.27;100.00
11448;BME280;43755;49.736;8.734;2022-12-07T05:31:55;97852.56;;;1.28;100.00
11448;BME280;43755;49.736;8.734;2022-12-07T05:33:57;97853.41;;;1.30;100.00
11448;BME280;43755;49.736;8.734;2022-12-07T05:35:58;97855.22;;;1.23;100.00
11448;BME280;43755;49.736;8.734;2022-12-07T05:38:05;97845.63;;;1.24;100.00
11448;BME280;43755;49.736;8.734;2022-12-07T05:40:08;97843.00;;;1.29;100.00
11448;BME280;43755;49.736;8.734;2022-12-07T05:42:10;97853.38;;;1.32;100.00
11448;BME280;43755;49.736;8.734;2022-12-07T05:44:13;97844.72;;;1.31;100.00
11448;BME280;43755;49.736;8.734;2022-12-07T05:46:16;97849.03;;;1.35;100.00
11448;BME280;43755;49.736;8.734;2022-12-07T05:48:17;97847.03;;;1.63;100.00
11448;BME280;43755;49.736;8.734;2022-12-07T05:50:19;97849.56;;;1.68;100.00
11448;BME280;43755;49.736;8.734;2022-12-07T05:52:20;97845.41;;;1.51;100.00
11448;BME280;43755;49.736;8.734;2022-12-07T05:54:22;97847.19;;;1.45;100.00
11448;BME280;43755;49.736;8.734;2022-12-07T05:56:23;97845.47;;;1.44;100.00
11448;BME280;43755;49.736;8.734;2022-12-07T05:58:26;97847.25;;;1.37;100.00
11448;BME280;43755;49.736;8.734;2022-12-07T06:00:45;97854.97;;;1.49;100.00
11448;BME280;43755;49.736;8.734;2022-12-07T06:02:48;97835.84;;;1.50;100.00
11448;BME280;43755;49.736;8.734;2022-12-07T06:04:49;97842.84;;;1.45;100.00
11448;BME280;43755;49.736;8.734;2022-12-07T06:06:51;97848.06;;;1.44;100.00
11448;BME280;43755;49.736;8.734;2022-12-07T06:08:52;97839.44;;;1.40;100.00
11448;BME280;43755;49.736;8.734;2022-12-07T06:10:54;97838.50;;;1.43;100.00
11448;BME280;43755;49.736;8.734;2022-12-07T06:13:09;97834.97;;;1.48;100.00
11448;BME280;43755;49.736;8.734;2022-12-07T06:15:10;97839.38;;;1.46;100.00
11448;BME280;43755;49.736;8.734;2022-12-07T06:17:14;97841.97;;;1.46;100.00
11448;BME280;43755;49.736;8.734;2022-12-07T06:19:17;97839.22;;;1.60;100.00
11448;BME280;43755;49.736;8.734;2022-12-07T06:21:18;97838.47;;;1.47;100.00
11448;BME280;43755;49.736;8.734;2022-12-07T06:23:20;97844.47;;;1.57;100.00
11448;BME280;43755;49.736;8.734;2022-12-07T06:25:21;97841.00;;;1.55;100.00
11448;BME280;43755;49.736;8.734;2022-12-07T06:27:22;97837.53;;;1.54;100.00
11448;BME280;43755;49.736;8.734;2022-12-07T06:29:24;97853.19;;;1.54;100.00
11448;BME280;43755;49.736;8.734;2022-12-07T06:31:26;97843.63;;;1.53;100.00
11448;BME280;43755;49.736;8.734;2022-12-07T06:33:28;97841.75;;;1.66;100.00
11448;BME280;43755;49.736;8.734;2022-12-07T06:35:32;97837.56;;;1.53;100.00
11448;BME280;43755;49.736;8.734;2022-12-07T06:37:33;97838.16;;;1.78;100.00
11448;BME280;43755;49.736;8.734;2022-12-07T06:39:34;97846.22;;;1.58;100.00
11448;BME280;43755;49.736;8.734;2022-12-07T06:41:36;97847.91;;;1.60;100.00
11448;BME280;43755;49.736;8.734;2022-12-07T06:43:38;97850.50;;;1.63;100.00
11448;BME280;43755;49.736;8.734;2022-12-07T06:45:40;97845.34;;;1.57;100.00
11448;BME280;43755;49.736;8.734;2022-12-07T06:47:42;97842.69;;;1.62;100.00
11448;BME280;43755;49.736;8.734;2022-12-07T06:49:43;97836.53;;;1.69;100.00
11448;BME280;43755;49.736;8.734;2022-12-07T06:51:46;97848.78;;;1.61;100.00
11448;BME280;43755;49.736;8.734;2022-12-07T06:53:47;97843.53;;;1.64;100.00
11448;BME280;43755;49.736;8.734;2022-12-07T06:55:49;97845.22;;;1.68;100.00
11448;BME280;43755;49.736;8.734;2022-12-07T06:57:50;97844.38;;;1.68;100.00
11448;BME280;43755;49.736;8.734;2022-12-07T06:59:51;97847.78;;;1.74;100.00
11448;BME280;43755;49.736;8.734;2022-12-07T07:01:53;97844.25;;;1.78;100.00
11448;BME280;43755;49.736;8.734;2022-12-07T07:03:54;97845.09;;;1.80;100.00
11448;BME280;43755;49.736;8.734;2022-12-07T07:05:56;97850.38;;;1.76;100.00
11448;BME280;43755;49.736;8.734;2022-12-07T07:07:58;97847.78;;;1.71;100.00
11448;BME280;43755;49.736;8.734;2022-12-07T07:10:00;97854.75;;;1.72;100.00
11448;BME280;43755;49.736;8.734;2022-12-07T07:12:01;97853.00;;;1.71;100.00
11448;BME280;43755;49.736;8.734;2022-12-07T07:14:03;97860.81;;;1.73;100.00
11448;BME280;43755;49.736;8.734;2022-12-07T07:16:05;97858.25;;;1.68;100.00
11448;BME280;43755;49.736;8.734;2022-12-07T07:18:06;97862.53;;;1.77;100.00
11448;BME280;43755;49.736;8.734;2022-12-07T07:20:09;97860.81;;;1.73;100.00
11448;BME280;43755;49.736;8.734;2022-12-07T07:22:10;97857.38;;;1.71;100.00
11448;BME280;43755;49.736;8.734;2022-12-07T07:24:13;97861.72;;;1.70;100.00
11448;BME280;43755;49.736;8.734;2022-12-07T07:26:14;97854.72;;;1.74;100.00
11448;BME280;43755;49.736;8.734;2022-12-07T07:28:16;97856.47;;;1.73;100.00
11448;BME280;43755;49.736;8.734;2022-12-07T07:30:18;97858.22;;;1.71;100.00
11448;BME280;43755;49.736;8.734;2022-12-07T07:32:19;97851.31;;;1.70;100.00
11448;BME280;43755;49.736;8.734;2022-12-07T07:34:22;97859.97;;;1.72;100.00
11448;BME280;43755;49.736;8.734;2022-12-07T07:36:23;97866.03;;;1.76;100.00
11448;BME280;43755;49.736;8.734;2022-12-07T07:38:24;97865.16;;;1.74;100.00
11448;BME280;43755;49.736;8.734;2022-12-07T07:40:28;97865.97;;;1.77;100.00
11448;BME280;43755;49.736;8.734;2022-12-07T07:42:29;97862.56;;;1.75;100.00
11448;BME280;43755;49.736;8.734;2022-12-07T07:44:31;97862.53;;;1.77;100.00
11448;BME280;43755;49.736;8.734;2022-12-07T07:46:32;97865.03;;;1.84;100.00
11448;BME280;43755;49.736;8.734;2022-12-07T07:48:34;97867.66;;;1.83;100.00
11448;BME280;43755;49.736;8.734;2022-12-07T07:50:35;97865.09;;;1.81;100.00
11448;BME280;43755;49.736;8.734;2022-12-07T07:52:37;97877.28;;;1.79;100.00
11448;BME280;43755;49.736;8.734;2022-12-07T07:54:38;97871.13;;;1.85;100.00
11448;BME280;43755;49.736;8.734;2022-12-07T07:56:41;97867.63;;;1.87;100.00
11448;BME280;43755;49.736;8.734;2022-12-07T07:58:42;97871.06;;;1.89;100.00
11448;BME280;43755;49.736;8.734;2022-12-07T08:00:44;97875.41;;;1.90;100.00
11448;BME280;43755;49.736;8.734;2022-12-07T08:02:45;97874.56;;;1.90;100.00
11448;BME280;43755;49.736;8.734;2022-12-07T08:04:47;97871.91;;;1.94;100.00
11448;BME280;43755;49.736;8.734;2022-12-07T08:06:48;97864.91;;;1.99;100.00
11448;BME280;43755;49.736;8.734;2022-12-07T08:08:50;97875.34;;;1.99;100.00
11448;BME280;43755;49.736;8.734;2022-12-07T08:10:51;97871.94;;;1.93;100.00
11448;BME280;43755;49.736;8.734;2022-12-07T08:12:54;97877.16;;;1.93;100.00
11448;BME280;43755;49.736;8.734;2022-12-07T08:15:14;97875.34;;;1.96;100.00
11448;BME280;43755;49.736;8.734;2022-12-07T08:17:16;97877.97;;;1.96;100.00
11448;BME280;43755;49.736;8.734;2022-12-07T08:19:17;97875.34;;;1.95;100.00
11448;BME280;43755;49.736;8.734;2022-12-07T08:21:18;97877.09;;;1.97;100.00
11448;BME280;43755;49.736;8.734;2022-12-07T08:23:20;97879.63;;;2.03;100.00
11448;BME280;43755;49.736;8.734;2022-12-07T08:25:21;97882.31;;;1.99;100.00
11448;BME280;43755;49.736;8.734;2022-12-07T08:27:23;97879.63;;;2.03;100.00
11448;BME280;43755;49.736;8.734;2022-12-07T08:29:28;97883.97;;;2.04;100.00
11448;BME280;43755;49.736;8.734;2022-12-07T08:31:29;97889.13;;;2.09;100.00
11448;BME280;43755;49.736;8.734;2022-12-07T08:33:31;97883.00;;;2.13;100.00
11448;BME280;43755;49.736;8.734;2022-12-07T08:35:33;97878.63;;;2.14;100.00
11448;BME280;43755;49.736;8.734;2022-12-07T08:37:35;97881.25;;;2.14;100.00
11448;BME280;43755;49.736;8.734;2022-12-07T08:39:37;97885.66;;;2.09;100.00
11448;BME280;43755;49.736;8.734;2022-12-07T08:41:38;97884.78;;;2.11;100.00
11448;BME280;43755;49.736;8.734;2022-12-07T08:43:40;97882.19;;;2.10;100.00
11448;BME280;43755;49.736;8.734;2022-12-07T08:45:42;97884.72;;;2.13;100.00
11448;BME280;43755;49.736;8.734;2022-12-07T08:47:46;97880.34;;;2.18;100.00
11448;BME280;43755;49.736;8.734;2022-12-07T08:49:50;97884.72;;;2.16;100.00
11448;BME280;43755;49.736;8.734;2022-12-07T08:51:54;97887.34;;;2.13;100.00
11448;BME280;43755;49.736;8.734;2022-12-07T08:53:58;97882.91;;;2.22;100.00
11448;BME280;43755;49.736;8.734;2022-12-07T08:56:01;97885.47;;;2.25;100.00
11448;BME280;43755;49.736;8.734;2022-12-07T08:58:03;97887.19;;;2.28;100.00
11448;BME280;43755;49.736;8.734;2022-12-07T09:00:06;97882.91;;;2.22;100.00
11448;BME280;43755;49.736;8.734;2022-12-07T09:02:08;97886.31;;;2.27;100.00
11448;BME280;43755;49.736;8.734;2022-12-07T09:04:10;97891.50;;;2.30;100.00
11448;BME280;43755;49.736;8.734;2022-12-07T09:06:11;97885.50;;;2.24;100.00
11448;BME280;43755;49.736;8.734;2022-12-07T09:08:13;97895.00;;;2.29;100.00
11448;BME280;43755;49.736;8.734;2022-12-07T09:10:15;97887.16;;;2.29;100.00
11448;BME280;43755;49.736;8.734;2022-12-07T09:12:16;97889.75;;;2.31;100.00
11448;BME280;43755;49.736;8.734;2022-12-07T09:14:17;97888.94;;;2.24;100.00
11448;BME280;43755;49.736;8.734;2022-12-07T09:16:19;97891.56;;;2.24;100.00
11448;BME280;43755;49.736;8.734;2022-12-07T09:18:22;97888.00;;;2.30;100.00
11448;BME280;43755;49.736;8.734;2022-12-07T09:20:24;97894.13;;;2.29;100.00
11448;BME280;43755;49.736;8.734;2022-12-07T09:22:28;97890.66;;;2.28;100.00
11448;BME280;43755;49.736;8.734;2022-12-07T09:24:29;97895.03;;;2.26;100.00
11448;BME280;43755;49.736;8.734;2022-12-07T09:26:31;97894.16;;;2.27;100.00
11448;BME280;43755;49.736;8.734;2022-12-07T09:28:32;97895.84;;;2.30;100.00
11448;BME280;43755;49.736;8.734;2022-12-07T09:30:34;97893.28;;;2.28;100.00
11448;BME280;43755;49.736;8.734;2022-12-07T09:32:36;97899.31;;;2.32;100.00
11448;BME280;43755;49.736;8.734;2022-12-07T09:34:39;97897.56;;;2.34;100.00
11448;BME280;43755;49.736;8.734;2022-12-07T09:36:40;97891.41;;;2.39;100.00
11448;BME280;43755;49.736;8.734;2022-12-07T09:38:42;97899.22;;;2.41;100.00
11448;BME280;43755;49.736;8.734;2022-12-07T09:40:44;97897.25;;;2.57;100.00
11448;BME280;43755;49.736;8.734;2022-12-07T09:42:49;97888.56;;;2.56;100.00
11448;BME280;43755;49.736;8.734;2022-12-07T09:44:51;97898.16;;;2.56;100.00
11448;BME280;43755;49.736;8.734;2022-12-07T09:46:52;97895.53;;;2.54;100.00
11448;BME280;43755;49.736;8.734;2022-12-07T09:48:54;97888.41;;;2.67;100.00
11448;BME280;43755;49.736;8.734;2022-12-07T09:50:58;97887.56;;;2.66;100.00
11448;BME280;43755;49.736;8.734;2022-12-07T09:53:06;97891.03;;;2.67;100.00
11448;BME280;43755;49.736;8.734;2022-12-07T09:55:12;97883.19;;;2.67;100.00
11448;BME280;43755;49.736;8.734;2022-12-07T09:57:15;97887.63;;;2.62;100.00
11448;BME280;43755;49.736;8.734;2022-12-07T09:59:18;97886.75;;;2.63;100.00
11448;BME280;43755;49.736;8.734;2022-12-07T10:01:21;97887.53;;;2.69;100.00
11448;BME280;43755;49.736;8.734;2022-12-07T10:03:22;97888.41;;;2.68;100.00
11448;BME280;43755;49.736;8.734;2022-12-07T10:05:27;97887.41;;;2.77;100.00
11448;BME280;43755;49.736;8.734;2022-12-07T10:07:32;97880.31;;;2.86;100.00
11448;BME280;43755;49.736;8.734;2022-12-07T10:09:33;97882.84;;;2.91;100.00
11448;BME280;43755;49.736;8.734;2022-12-07T10:11:57;97880.88;;;3.07;100.00
11448;BME280;43755;49.736;8.734;2022-12-07T10:14:10;97874.81;;;3.06;100.00
11448;BME280;43755;49.736;8.734;2022-12-07T10:16:34;97872.13;;;3.11;100.00
11448;BME280;43755;49.736;8.734;2022-12-07T10:18:37;97863.50;;;3.06;100.00
11448;BME280;43755;49.736;8.734;2022-12-07T10:20:41;97867.81;;;3.07;100.00
11448;BME280;43755;49.736;8.734;2022-12-07T10:23:01;97853.84;;;3.09;100.00
11448;BME280;43755;49.736;8.734;2022-12-07T10:25:09;97865.00;;;3.19;100.00
11448;BME280;43755;49.736;8.734;2022-12-07T10:27:20;97859.72;;;3.23;100.00
11448;BME280;43755;49.736;8.734;2022-12-07T10:29:24;97856.34;;;3.15;100.00
11448;BME280;43755;49.736;8.734;2022-12-07T10:31:26;97851.03;;;3.23;100.00
11448;BME280;43755;49.736;8.734;2022-12-07T10:33:34;97860.59;;;3.22;100.00
11448;BME280;43755;49.736;8.734;2022-12-07T10:35:42;97854.50;;;3.22;100.00
11448;BME280;43755;49.736;8.734;2022-12-07T10:37:44;97852.00;;;3.16;100.00
11448;BME280;43755;49.736;8.734;2022-12-07T10:39:49;97862.25;;;3.29;100.00
11448;BME280;43755;49.736;8.734;2022-12-07T10:41:55;97860.63;;;3.21;100.00
11448;BME280;43755;49.736;8.734;2022-12-07T10:43:57;97854.44;;;3.25;100.00
11448;BME280;43755;49.736;8.734;2022-12-07T10:46:10;97857.16;;;3.19;100.00
11448;BME280;43755;49.736;8.734;2022-12-07T10:48:24;97854.78;;;3.05;100.00
11448;BME280;43755;49.736;8.734;2022-12-07T10:50:45;97849.56;;;3.05;100.00
11448;BME280;43755;49.736;8.734;2022-12-07T10:53:01;97848.69;;;3.06;100.00
11448;BME280;43755;49.736;8.734;2022-12-07T10:55:17;97846.09;;;3.02;100.00
11448;BME280;43755;49.736;8.734;2022-12-07T10:57:29;97852.19;;;3.04;100.00
11448;BME280;43755;49.736;8.734;2022-12-07T10:59:43;97845.09;;;3.12;100.00